Time;durP1;ratioP1;P1;durP2;ratioP2;P2;SDS_P1;SDS_P2;PMS_P1;PMS_P2;Temp;Humidity;BMP_temperature;BMP_pressure;BME280_temperature;BME280_humidity;BME280_pressure;Samples;Min_cycle;Max_cycle;Signal;HPM_P1;HPM_P2
2022/01/30 00:00:36;;;;;;;10.90;2.45;;;5.70;99.90;;;;;;2082194;28;20037;-69
2022/01/30 00:01:37;;;;;;;10.27;2.30;;;5.70;99.90;;;;;;2081983;28;20033;-72
2022/01/30 00:02:37;;;;;;;10.15;2.65;;;5.80;99.90;;;;;;2083270;28;20029;-70
2022/01/30 00:03:38;;;;;;;11.52;2.22;;;5.80;99.90;;;;;;2082988;28;20049;-71
2022/01/30 00:04:39;;;;;;;10.38;1.92;;;5.80;99.90;;;;;;2074792;28;20494;-73
2022/01/30 00:05:39;;;;;;;9.02;2.15;;;5.80;99.90;;;;;;2082786;28;20025;-72
2022/01/30 00:06:40;;;;;;;12.00;2.15;;;5.80;99.90;;;;;;2082520;28;20030;-70
2022/01/30 00:07:41;;;;;;;14.80;2.47;;;5.80;99.90;;;;;;2081832;28;20105;-71
2022/01/30 00:08:42;;;;;;;9.02;2.17;;;5.80;99.90;;;;;;2073493;28;20534;-71
2022/01/30 00:09:42;;;;;;;11.93;2.20;;;5.80;99.90;;;;;;2081551;28;20626;-70
2022/01/30 00:10:44;;;;;;;10.32;2.50;;;5.80;99.90;;;;;;2081682;28;20044;-71
2022/01/30 00:11:49;;;;;;;9.85;2.20;;;5.80;99.90;;;;;;2082196;28;20079;-71
2022/01/30 00:12:59;;;;;;;10.13;2.47;;;5.80;99.90;;;;;;2082091;28;20044;-71
2022/01/30 00:14:02;;;;;;;9.82;2.10;;;5.90;99.90;;;;;;2074664;28;20034;-68
2022/01/30 00:15:02;;;;;;;11.32;2.40;;;5.90;99.90;;;;;;2074084;28;20033;-70
2022/01/30 00:16:06;;;;;;;13.52;2.20;;;5.90;99.90;;;;;;2081451;28;20033;-69
2022/01/30 00:17:14;;;;;;;11.18;2.20;;;5.90;99.90;;;;;;2081554;28;20040;-70
2022/01/30 00:19:24;;;;;;;10.27;2.10;;;5.90;99.90;;;;;;2081352;28;20492;-70
2022/01/30 00:20:26;;;;;;;11.27;2.10;;;5.90;99.90;;;;;;2073690;28;20046;-69
2022/01/30 00:23:33;;;;;;;11.30;2.10;;;6.00;99.90;;;;;;2081523;28;20033;-67
2022/01/30 00:24:46;;;;;;;12.07;2.10;;;6.00;99.90;;;;;;2074078;28;20029;-68
2022/01/30 00:25:52;;;;;;;14.90;2.30;;;6.00;99.90;;;;;;2072454;28;20026;-68
2022/01/30 00:26:53;;;;;;;7.90;2.03;;;6.00;99.90;;;;;;2073269;28;20033;-70
2022/01/30 00:28:05;;;;;;;12.98;2.25;;;6.00;99.90;;;;;;2072902;28;20108;-68
2022/01/30 00:29:06;;;;;;;8.32;2.08;;;6.00;99.90;;;;;;2081753;28;20029;-75
2022/01/30 00:30:09;;;;;;;10.15;2.40;;;6.00;99.90;;;;;;2073378;28;20026;-70
2022/01/30 00:31:13;;;;;;;12.48;2.67;;;6.00;99.90;;;;;;2065844;28;20077;-70
2022/01/30 00:32:16;;;;;;;8.70;2.33;;;5.90;99.90;;;;;;2073679;28;20028;-69
2022/01/30 00:33:17;;;;;;;9.93;2.25;;;6.00;99.90;;;;;;2073246;28;20022;-70
2022/01/30 00:34:17;;;;;;;13.30;2.45;;;6.00;99.90;;;;;;2073133;28;20038;-69
2022/01/30 00:35:18;;;;;;;10.65;2.40;;;6.00;99.90;;;;;;2073194;28;20057;-70
2022/01/30 00:36:19;;;;;;;12.48;2.28;;;6.00;99.90;;;;;;2080731;28;20053;-69
2022/01/30 00:37:20;;;;;;;11.18;2.47;;;6.00;99.90;;;;;;2071136;28;20510;-69
2022/01/30 00:38:22;;;;;;;12.40;2.50;;;6.00;99.90;;;;;;2066660;28;20117;-69
2022/01/30 00:39:23;;;;;;;11.63;2.58;;;6.00;99.90;;;;;;2072773;28;20038;-70
2022/01/30 00:40:24;;;;;;;9.02;2.08;;;6.00;99.90;;;;;;2073700;28;20061;-69
2022/01/30 00:41:26;;;;;;;12.75;2.30;;;6.00;99.90;;;;;;2074068;28;20417;-69
2022/01/30 00:42:27;;;;;;;15.07;2.30;;;6.00;99.90;;;;;;2076698;28;20044;-69
2022/01/30 00:43:28;;;;;;;14.90;2.53;;;6.00;99.90;;;;;;2081129;28;20059;-69
2022/01/30 00:44:29;;;;;;;11.55;2.15;;;6.00;99.90;;;;;;2074538;28;20551;-70
2022/01/30 00:45:30;;;;;;;14.20;2.53;;;6.00;99.90;;;;;;2079293;28;20097;-71
2022/01/30 00:46:31;;;;;;;13.77;2.55;;;6.00;99.90;;;;;;2068414;28;20048;-71
2022/01/30 00:47:31;;;;;;;11.35;2.20;;;6.00;99.90;;;;;;2065991;28;20081;-70
2022/01/30 00:48:33;;;;;;;11.63;2.85;;;5.90;99.90;;;;;;2073165;28;20087;-70
2022/01/30 00:49:34;;;;;;;13.30;2.78;;;5.90;99.90;;;;;;2080353;28;20065;-70
2022/01/30 00:50:37;;;;;;;13.23;2.50;;;5.90;99.90;;;;;;2078390;28;20033;-70
2022/01/30 00:51:38;;;;;;;15.70;2.80;;;5.90;99.90;;;;;;2081319;28;20020;-71
2022/01/30 00:52:38;;;;;;;10.95;2.47;;;5.90;99.90;;;;;;2081963;28;20785;-73
2022/01/30 00:53:39;;;;;;;12.63;2.60;;;5.90;99.90;;;;;;2081702;28;20028;-71
2022/01/30 00:54:41;;;;;;;11.40;2.33;;;5.90;99.90;;;;;;2082088;28;20068;-70
2022/01/30 00:55:42;;;;;;;14.95;2.40;;;5.90;99.90;;;;;;2081556;28;20033;-70
2022/01/30 00:56:43;;;;;;;13.82;2.40;;;5.80;99.90;;;;;;2065480;28;20418;-70
2022/01/30 00:57:44;;;;;;;14.68;2.88;;;5.80;99.90;;;;;;2056964;28;20037;-71
2022/01/30 00:58:45;;;;;;;15.07;2.90;;;5.90;99.90;;;;;;2074228;28;20061;-70
2022/01/30 00:59:46;;;;;;;13.43;2.80;;;5.90;99.90;;;;;;2078391;28;20156;-70
2022/01/30 01:00:47;;;;;;;16.05;3.05;;;5.80;99.90;;;;;;2080341;28;20489;-70
2022/01/30 01:01:47;;;;;;;16.77;3.13;;;5.80;99.90;;;;;;2082435;28;20041;-71
2022/01/30 01:02:49;;;;;;;15.07;2.80;;;5.80;99.90;;;;;;2081770;28;20506;-70
2022/01/30 01:03:50;;;;;;;17.75;3.08;;;5.80;99.90;;;;;;2073248;28;20089;-69
2022/01/30 01:04:51;;;;;;;15.02;3.15;;;5.90;99.90;;;;;;2073279;28;20810;-71
2022/01/30 01:05:52;;;;;;;14.90;3.13;;;5.80;99.90;;;;;;2089051;28;20087;-69
2022/01/30 01:06:53;;;;;;;13.57;2.80;;;5.90;99.90;;;;;;2081948;28;20049;-70
2022/01/30 01:07:57;;;;;;;14.60;3.00;;;5.90;99.90;;;;;;2074027;28;20242;-70
2022/01/30 01:09:01;;;;;;;11.38;2.83;;;5.90;99.90;;;;;;2064972;28;20038;-70
2022/01/30 01:10:12;;;;;;;16.27;3.10;;;5.90;99.90;;;;;;2081212;28;20183;-70
2022/01/30 01:11:40;;;;;;;19.73;3.30;;;5.90;99.90;;;;;;2082426;28;20029;-70
2022/01/30 01:13:57;;;;;;;16.20;3.05;;;5.90;99.90;;;;;;2081560;28;20124;-68
2022/01/30 01:23:24;;;;;;;17.48;3.08;;;6.10;99.90;;;;;;2082072;28;20442;-69
2022/01/30 01:24:02;;;;;;;15.80;3.25;;;6.10;99.90;;;;;;2081625;28;20033;-68
2022/01/30 01:25:03;;;;;;;17.90;3.20;;;6.10;99.90;;;;;;2073588;28;20022;-70
2022/01/30 01:26:04;;;;;;;16.52;3.13;;;6.10;99.90;;;;;;2081462;28;20028;-70
2022/01/30 01:27:05;;;;;;;18.85;3.08;;;6.00;99.90;;;;;;2065058;28;20104;-70
2022/01/30 01:28:06;;;;;;;18.65;3.30;;;6.00;99.90;;;;;;2063408;28;20077;-68
2022/01/30 01:29:07;;;;;;;16.15;3.45;;;6.00;99.90;;;;;;2075046;28;20092;-71
2022/01/30 01:30:08;;;;;;;18.27;3.20;;;6.10;99.90;;;;;;2080949;28;20080;-70
2022/01/30 01:31:09;;;;;;;18.27;3.22;;;6.00;99.90;;;;;;2081209;28;20032;-70
2022/01/30 01:32:10;;;;;;;17.10;2.97;;;6.10;99.90;;;;;;2082382;28;20052;-70
2022/01/30 01:33:11;;;;;;;14.27;2.88;;;6.10;99.90;;;;;;2081396;28;20046;-70
2022/01/30 01:34:32;;;;;;;16.95;2.90;;;6.00;99.90;;;;;;2082604;28;20025;-69
2022/01/30 01:35:33;;;;;;;16.05;2.83;;;6.00;99.90;;;;;;2074892;28;20038;-70
2022/01/30 01:36:34;;;;;;;21.73;3.20;;;6.00;99.90;;;;;;2074559;28;20034;-70
2022/01/30 01:37:35;;;;;;;15.60;2.97;;;6.00;99.90;;;;;;2080379;28;20083;-70
2022/01/30 01:38:35;;;;;;;21.52;3.47;;;6.00;99.90;;;;;;2071588;28;20022;-70
2022/01/30 01:39:36;;;;;;;20.95;3.63;;;6.00;99.90;;;;;;2074672;28;20022;-70
2022/01/30 01:40:40;;;;;;;15.73;3.22;;;6.00;99.90;;;;;;2082533;28;20017;-70
2022/01/30 01:41:41;;;;;;;16.92;3.30;;;6.00;99.90;;;;;;2082395;28;20439;-70
2022/01/30 01:42:43;;;;;;;17.95;3.10;;;6.00;99.90;;;;;;2074592;28;20057;-69
2022/01/30 01:43:44;;;;;;;14.05;3.15;;;6.10;99.90;;;;;;2082761;28;20037;-70
2022/01/30 01:44:49;;;;;;;15.48;2.80;;;6.20;99.90;;;;;;2074147;28;20056;-70
2022/01/30 01:45:51;;;;;;;14.05;2.40;;;6.30;99.90;;;;;;2082040;28;20120;-70
2022/01/30 01:46:51;;;;;;;13.80;2.80;;;6.30;99.90;;;;;;2082927;28;20022;-70
2022/01/30 01:47:52;;;;;;;13.60;2.90;;;6.40;99.90;;;;;;2075521;28;20014;-71
2022/01/30 01:48:53;;;;;;;13.57;2.72;;;6.40;99.90;;;;;;2075202;28;20032;-69
2022/01/30 01:49:54;;;;;;;16.27;2.95;;;6.40;99.90;;;;;;2074888;28;20113;-70
2022/01/30 01:51:05;;;;;;;12.65;2.58;;;6.50;99.90;;;;;;2074462;28;20134;-69
2022/01/30 01:52:24;;;;;;;12.88;2.95;;;6.40;99.90;;;;;;2076337;28;20033;-70
2022/01/30 01:53:25;;;;;;;10.88;2.53;;;6.40;99.90;;;;;;2068634;28;20026;-71
2022/01/30 01:54:26;;;;;;;16.05;2.60;;;6.40;99.90;;;;;;2058166;28;20121;-70
2022/01/30 01:55:27;;;;;;;13.55;3.00;;;6.40;99.90;;;;;;2074129;28;20022;-71
2022/01/30 01:56:28;;;;;;;14.88;3.13;;;6.30;99.90;;;;;;2073481;28;20041;-70
2022/01/30 01:57:39;;;;;;;13.88;3.10;;;6.30;99.90;;;;;;2075094;28;20030;-70
2022/01/30 01:59:18;;;;;;;14.50;2.78;;;6.20;99.90;;;;;;2078008;28;20119;-69
2022/01/30 02:00:40;;;;;;;10.82;2.30;;;6.20;99.90;;;;;;2072911;28;20026;-70
2022/01/30 02:01:41;;;;;;;10.00;2.38;;;6.20;99.90;;;;;;2072540;28;20096;-69
2022/01/30 02:02:41;;;;;;;12.55;2.63;;;6.20;99.90;;;;;;2081323;28;20029;-70
2022/01/30 02:03:44;;;;;;;12.07;2.83;;;6.20;99.90;;;;;;2072686;28;20065;-69
2022/01/30 02:04:46;;;;;;;15.02;3.00;;;6.10;99.90;;;;;;2075315;28;21016;-69
2022/01/30 02:05:52;;;;;;;14.55;2.92;;;6.00;99.90;;;;;;2081577;28;20013;-69
2022/01/30 02:07:04;;;;;;;15.30;2.70;;;6.00;99.90;;;;;;2081456;28;20559;-69
2022/01/30 02:09:29;;;;;;;12.27;2.30;;;5.90;99.90;;;;;;2080840;28;20119;-69
2022/01/30 02:10:45;;;;;;;11.25;2.20;;;5.90;99.90;;;;;;2081201;28;20036;-69
2022/01/30 02:11:47;;;;;;;11.63;2.28;;;5.90;99.90;;;;;;2080608;28;20060;-69
2022/01/30 02:12:52;;;;;;;7.90;1.98;;;5.90;99.90;;;;;;2073052;28;20588;-69
2022/01/30 02:14:18;;;;;;;9.98;2.00;;;5.90;99.90;;;;;;2073335;28;20336;-69
2022/01/30 02:25:03;;;;;;;8.60;2.00;;;6.00;99.90;;;;;;2080882;28;20116;-69
2022/01/30 02:26:04;;;;;;;11.68;2.25;;;6.00;99.90;;;;;;2080276;28;20033;-69
2022/01/30 02:27:05;;;;;;;8.73;2.03;;;6.00;99.90;;;;;;2081018;28;20095;-69
2022/01/30 02:28:11;;;;;;;9.68;2.10;;;6.10;99.90;;;;;;2080733;28;20025;-69
2022/01/30 02:29:12;;;;;;;10.95;2.28;;;6.00;99.90;;;;;;2073160;28;20034;-69
2022/01/30 02:30:18;;;;;;;9.30;2.08;;;6.10;99.90;;;;;;2072518;28;20021;-69
2022/01/30 02:31:21;;;;;;;8.98;2.25;;;6.10;99.90;;;;;;2073371;28;20407;-69
2022/01/30 02:32:22;;;;;;;10.50;2.30;;;6.10;99.90;;;;;;2080417;28;20412;-69
2022/01/30 02:33:23;;;;;;;13.18;2.53;;;6.10;99.90;;;;;;2073452;28;20029;-69
2022/01/30 02:34:28;;;;;;;14.57;2.60;;;6.10;99.90;;;;;;2074553;28;20038;-70
2022/01/30 02:35:28;;;;;;;12.02;2.30;;;6.10;99.90;;;;;;2065532;28;20045;-69
2022/01/30 02:36:29;;;;;;;18.10;2.53;;;6.10;99.90;;;;;;2073666;28;20034;-69
2022/01/30 02:37:30;;;;;;;14.77;2.38;;;6.10;99.90;;;;;;2089474;28;20490;-70
2022/01/30 02:38:31;;;;;;;11.25;2.30;;;6.10;99.90;;;;;;2081280;28;20033;-69
2022/01/30 02:39:32;;;;;;;13.75;2.50;;;6.20;99.90;;;;;;2080420;28;20029;-71
2022/01/30 02:40:39;;;;;;;14.13;2.40;;;6.20;99.90;;;;;;2072575;28;20698;-70
2022/01/30 02:41:40;;;;;;;14.35;2.58;;;6.10;99.90;;;;;;2080288;28;20040;-69
2022/01/30 02:42:42;;;;;;;13.88;2.80;;;6.10;99.90;;;;;;2080415;28;20053;-69
2022/01/30 02:43:55;;;;;;;12.23;2.45;;;6.10;99.90;;;;;;2080412;28;20017;-69
2022/01/30 02:45:00;;;;;;;14.15;2.83;;;6.10;99.90;;;;;;2074387;28;20032;-69
2022/01/30 02:46:19;;;;;;;14.95;2.58;;;6.10;99.90;;;;;;2072573;28;20115;-70
2022/01/30 02:47:54;;;;;;;11.57;2.50;;;6.10;99.90;;;;;;2075273;28;20032;-69
2022/01/30 02:48:57;;;;;;;14.82;3.10;;;6.10;99.90;;;;;;2074990;28;20026;-69
2022/01/30 02:50:21;;;;;;;15.65;2.92;;;6.00;99.90;;;;;;2074232;28;20596;-70
2022/01/30 02:51:23;;;;;;;9.77;2.30;;;6.00;99.90;;;;;;2075091;28;20679;-70
2022/01/30 02:52:24;;;;;;;16.27;2.67;;;6.00;99.90;;;;;;2063920;28;20030;-69
2022/01/30 02:53:30;;;;;;;20.08;3.20;;;6.00;99.90;;;;;;2072108;28;20034;-70
2022/01/30 02:54:32;;;;;;;14.65;2.90;;;6.00;99.90;;;;;;2080318;28;20096;-69
2022/01/30 02:55:32;;;;;;;13.82;2.90;;;6.00;99.90;;;;;;2079971;28;20041;-70
2022/01/30 02:56:35;;;;;;;13.90;2.80;;;6.00;99.90;;;;;;2072147;28;20029;-70
2022/01/30 02:57:36;;;;;;;14.73;2.70;;;6.00;99.90;;;;;;2072361;28;20394;-70
2022/01/30 02:58:37;;;;;;;14.32;2.45;;;6.00;99.90;;;;;;2071976;28;20041;-70
2022/01/30 02:59:39;;;;;;;17.20;2.88;;;6.00;99.90;;;;;;2071910;28;20076;-69
2022/01/30 03:00:39;;;;;;;11.95;2.45;;;6.00;99.90;;;;;;2072098;28;20026;-69
2022/01/30 03:01:41;;;;;;;13.32;2.53;;;6.00;99.90;;;;;;2071635;28;20133;-68
2022/01/30 03:02:41;;;;;;;15.30;2.55;;;5.90;99.90;;;;;;2072035;28;20379;-69
2022/01/30 03:03:42;;;;;;;12.02;2.72;;;5.90;99.90;;;;;;2071915;28;20117;-70
2022/01/30 03:04:43;;;;;;;12.45;2.35;;;5.90;99.90;;;;;;2072001;28;20018;-70
2022/01/30 03:05:43;;;;;;;14.32;2.60;;;5.90;99.90;;;;;;2079620;28;20029;-70
2022/01/30 03:06:46;;;;;;;12.30;2.75;;;5.90;99.90;;;;;;2071903;28;20064;-69
2022/01/30 03:08:03;;;;;;;12.02;2.53;;;5.90;99.90;;;;;;2074305;28;20158;-69
2022/01/30 03:09:07;;;;;;;11.45;2.20;;;5.80;99.90;;;;;;2071602;28;20418;-68
2022/01/30 03:10:08;;;;;;;12.05;2.42;;;5.80;99.90;;;;;;2063952;28;20629;-69
2022/01/30 03:11:08;;;;;;;14.55;2.70;;;5.80;99.90;;;;;;2063707;28;20042;-69
2022/01/30 03:12:09;;;;;;;13.65;2.85;;;5.80;99.90;;;;;;2071527;28;20572;-69
2022/01/30 03:13:10;;;;;;;12.38;2.65;;;5.70;99.90;;;;;;2079934;28;20398;-71
2022/01/30 03:14:11;;;;;;;15.27;3.10;;;5.80;99.90;;;;;;2080017;28;20060;-70
2022/01/30 03:15:12;;;;;;;15.65;2.75;;;5.80;99.90;;;;;;2079885;28;20025;-70
2022/01/30 03:16:14;;;;;;;11.20;2.60;;;5.80;99.90;;;;;;2071290;28;20034;-70
2022/01/30 03:17:15;;;;;;;17.23;2.72;;;5.80;99.90;;;;;;2079889;28;20595;-70
2022/01/30 03:18:16;;;;;;;10.98;2.15;;;5.70;99.90;;;;;;2080634;28;20087;-69
2022/01/30 03:19:16;;;;;;;15.88;2.97;;;5.80;99.90;;;;;;2080588;28;20095;-69
2022/01/30 03:20:17;;;;;;;12.38;2.65;;;5.80;99.90;;;;;;2079727;28;20064;-69
2022/01/30 03:21:18;;;;;;;14.63;2.72;;;5.80;99.90;;;;;;2079853;28;20796;-68
2022/01/30 03:22:19;;;;;;;13.13;2.85;;;5.80;99.90;;;;;;2079354;28;20036;-69
2022/01/30 03:23:20;;;;;;;13.27;2.78;;;5.80;99.90;;;;;;2071775;28;20034;-69
2022/01/30 03:24:20;;;;;;;12.48;2.50;;;5.70;99.90;;;;;;2072058;28;20022;-69
2022/01/30 03:25:21;;;;;;;13.60;2.50;;;5.70;99.90;;;;;;2071349;28;20029;-70
2022/01/30 03:26:37;;;;;;;15.95;2.92;;;5.70;99.90;;;;;;2080995;28;20408;-69
2022/01/30 03:27:54;;;;;;;12.98;2.55;;;5.70;99.90;;;;;;2079385;28;20421;-68
2022/01/30 03:29:05;;;;;;;12.75;2.53;;;5.70;99.90;;;;;;2079893;28;20026;-71
2022/01/30 03:30:13;;;;;;;16.33;2.83;;;5.70;99.90;;;;;;2072559;28;20515;-70
2022/01/30 03:31:40;;;;;;;17.00;2.60;;;5.70;99.90;;;;;;2074519;28;20034;-70
2022/01/30 03:32:41;;;;;;;13.60;2.60;;;5.70;99.90;;;;;;2078092;28;20041;-70
2022/01/30 03:33:41;;;;;;;12.10;2.90;;;5.70;99.90;;;;;;2079994;28;20030;-70
2022/01/30 03:34:42;;;;;;;14.73;2.80;;;5.70;99.90;;;;;;2079823;28;20032;-69
2022/01/30 03:35:43;;;;;;;13.88;2.65;;;5.70;99.90;;;;;;2071273;28;20033;-70
2022/01/30 03:36:45;;;;;;;15.88;3.17;;;5.70;99.90;;;;;;2071774;28;20030;-70
2022/01/30 03:37:46;;;;;;;14.85;3.08;;;5.70;99.90;;;;;;2080102;28;20482;-70
2022/01/30 03:38:47;;;;;;;15.32;2.97;;;5.70;99.90;;;;;;2079950;28;20033;-70
2022/01/30 03:39:51;;;;;;;16.55;3.05;;;5.70;99.90;;;;;;2071964;28;20056;-69
2022/01/30 03:40:53;;;;;;;12.05;2.70;;;5.80;99.90;;;;;;2072200;28;20037;-70
2022/01/30 03:41:54;;;;;;;10.63;2.58;;;5.80;99.90;;;;;;2063651;28;20223;-70
2022/01/30 03:42:55;;;;;;;12.50;2.83;;;5.80;99.90;;;;;;2080137;28;20085;-70
2022/01/30 03:43:56;;;;;;;14.50;2.95;;;5.70;99.90;;;;;;2088294;28;20103;-70
2022/01/30 03:44:57;;;;;;;13.05;2.83;;;5.80;99.90;;;;;;2080051;28;20069;-70
2022/01/30 03:45:58;;;;;;;16.65;3.00;;;5.70;99.90;;;;;;2071445;28;20486;-70
2022/01/30 03:46:58;;;;;;;14.93;2.92;;;5.70;99.90;;;;;;2071607;28;20029;-69
2022/01/30 03:48:01;;;;;;;15.20;2.63;;;5.70;99.90;;;;;;2064206;28;20100;-69
2022/01/30 03:49:28;;;;;;;8.60;2.30;;;5.70;99.90;;;;;;2075293;28;20108;-71
2022/01/30 03:50:30;;;;;;;14.90;3.17;;;5.70;99.90;;;;;;2079951;28;20104;-69
2022/01/30 03:51:31;;;;;;;15.70;3.20;;;5.70;99.90;;;;;;2071568;28;20038;-71
2022/01/30 03:52:42;;;;;;;19.58;3.05;;;5.70;99.90;;;;;;2073254;28;20109;-69
2022/01/30 03:53:43;;;;;;;17.40;3.05;;;5.60;99.90;;;;;;2071878;28;20030;-69
2022/01/30 03:54:44;;;;;;;11.45;2.90;;;5.60;99.90;;;;;;2080120;28;20132;-70
2022/01/30 03:55:45;;;;;;;12.15;2.65;;;5.60;99.90;;;;;;2079634;28;20033;-70
2022/01/30 03:56:54;;;;;;;14.93;2.80;;;5.60;99.90;;;;;;2072901;28;20033;-70
2022/01/30 03:58:00;;;;;;;12.35;2.45;;;5.60;99.90;;;;;;2072419;28;20423;-70
2022/01/30 03:59:02;;;;;;;16.40;2.67;;;5.60;99.90;;;;;;2071998;28;20092;-70
2022/01/30 04:00:05;;;;;;;13.52;3.20;;;5.60;99.90;;;;;;2071842;28;20029;-69
2022/01/30 04:01:06;;;;;;;15.70;3.17;;;5.60;99.90;;;;;;2071887;28;20514;-71
2022/01/30 04:02:08;;;;;;;20.38;3.20;;;5.60;99.90;;;;;;2071513;28;20040;-70
2022/01/30 04:03:08;;;;;;;13.18;3.03;;;5.60;99.90;;;;;;2079968;28;20033;-72
2022/01/30 04:04:09;;;;;;;16.50;3.30;;;5.60;99.90;;;;;;2079828;28;20043;-71
2022/01/30 04:05:10;;;;;;;15.13;2.95;;;5.60;99.90;;;;;;2071762;28;20068;-70
2022/01/30 04:06:12;;;;;;;15.20;3.30;;;5.60;99.90;;;;;;2071236;28;20034;-71
2022/01/30 04:07:13;;;;;;;16.65;3.25;;;5.60;99.90;;;;;;2071631;28;20018;-71
2022/01/30 04:08:29;;;;;;;17.05;3.00;;;5.60;99.90;;;;;;2079933;28;20064;-70
2022/01/30 04:09:35;;;;;;;12.73;3.22;;;5.60;99.90;;;;;;2071872;28;20123;-69
2022/01/30 04:10:47;;;;;;;13.10;2.92;;;5.60;99.90;;;;;;2067619;28;20018;-70
2022/01/30 04:11:56;;;;;;;14.40;2.83;;;5.60;99.90;;;;;;2072389;28;20026;-70
2022/01/30 04:13:15;;;;;;;13.23;2.78;;;5.60;99.90;;;;;;2080509;28;20065;-70
2022/01/30 04:14:36;;;;;;;16.13;2.90;;;5.60;99.90;;;;;;2087734;28;20492;-70
2022/01/30 04:15:58;;;;;;;11.57;2.72;;;5.60;99.90;;;;;;2079561;28;20029;-69
2022/01/30 04:17:22;;;;;;;12.13;2.63;;;5.60;99.90;;;;;;2087695;28;20040;-71
2022/01/30 04:18:41;;;;;;;11.95;2.53;;;5.60;99.90;;;;;;2071546;28;20022;-70
2022/01/30 04:19:52;;;;;;;16.00;3.10;;;5.60;99.90;;;;;;2068806;28;20092;-71
2022/01/30 04:21:12;;;;;;;17.40;2.72;;;5.60;99.90;;;;;;2080549;28;20037;-70
2022/01/30 04:22:42;;;;;;;15.10;2.75;;;5.60;99.90;;;;;;2079991;28;20056;-69
2022/01/30 04:24:07;;;;;;;12.43;2.53;;;5.70;99.90;;;;;;2079506;28;20532;-71
2022/01/30 04:25:31;;;;;;;15.07;2.88;;;5.70;99.90;;;;;;2074041;28;20044;-71
2022/01/30 04:26:53;;;;;;;16.52;2.92;;;5.70;99.90;;;;;;2081121;28;20449;-71
2022/01/30 04:28:11;;;;;;;16.25;2.95;;;5.70;99.90;;;;;;2080965;28;20029;-71
2022/01/30 04:29:38;;;;;;;18.65;3.22;;;5.60;99.90;;;;;;2080244;28;20091;-72
2022/01/30 04:30:58;;;;;;;20.95;3.65;;;5.70;99.90;;;;;;2080658;28;20733;-70
2022/01/30 04:32:13;;;;;;;16.35;3.13;;;5.70;99.90;;;;;;2072299;28;20089;-70
2022/01/30 04:33:40;;;;;;;14.48;2.95;;;5.70;99.90;;;;;;2077523;28;20116;-70
2022/01/30 04:34:58;;;;;;;13.90;2.78;;;5.70;99.90;;;;;;2078565;28;20033;-70
2022/01/30 04:36:25;;;;;;;14.95;2.78;;;5.60;99.90;;;;;;2083536;28;20045;-69
2022/01/30 04:41:28;;;;;;;16.85;3.00;;;5.70;99.90;;;;;;2086745;28;20026;-70
2022/01/30 04:55:23;;;;;;;16.00;2.90;;;5.60;99.90;;;;;;2082498;28;20092;-70
2022/01/30 05:00:03;;;;;;;12.63;2.75;;;5.60;99.90;;;;;;2083875;28;20128;-70
2022/01/30 05:01:37;;;;;;;11.65;2.88;;;5.60;99.90;;;;;;2082538;28;20671;-70
2022/01/30 05:04:54;;;;;;;12.50;2.63;;;5.60;99.90;;;;;;2088354;28;20018;-70
2022/01/30 05:06:17;;;;;;;14.73;2.50;;;5.60;99.90;;;;;;2084418;28;20509;-70
2022/01/30 05:07:38;;;;;;;13.65;2.53;;;5.60;99.90;;;;;;2084442;28;20057;-70
2022/01/30 05:08:57;;;;;;;12.73;2.75;;;5.60;99.90;;;;;;2085025;28;20029;-70
2022/01/30 05:10:17;;;;;;;13.40;2.83;;;5.60;99.90;;;;;;2085455;28;20037;-69
2022/01/30 05:11:36;;;;;;;14.38;2.55;;;5.60;99.90;;;;;;2085774;28;20056;-71
2022/01/30 05:13:01;;;;;;;13.07;3.20;;;5.60;99.90;;;;;;2085116;28;20075;-69
2022/01/30 05:14:23;;;;;;;14.23;3.05;;;5.60;99.90;;;;;;2079661;28;20440;-69
2022/01/30 05:15:43;;;;;;;11.15;2.75;;;5.60;99.90;;;;;;2083960;28;20452;-70
2022/01/30 05:16:47;;;;;;;13.93;2.70;;;5.60;99.90;;;;;;2084560;28;20077;-70
2022/01/30 05:18:24;;;;;;;13.65;2.95;;;5.60;99.90;;;;;;2091037;28;20028;-69
2022/01/30 05:19:50;;;;;;;17.05;3.00;;;5.60;99.90;;;;;;2082659;28;20025;-70
2022/01/30 05:21:02;;;;;;;13.75;3.10;;;5.60;99.90;;;;;;2074033;28;20064;-69
2022/01/30 05:22:13;;;;;;;15.95;3.38;;;5.60;99.90;;;;;;2074713;28;20076;-69
2022/01/30 05:23:22;;;;;;;14.43;3.00;;;5.60;99.90;;;;;;2074257;28;20029;-69
2022/01/30 05:24:40;;;;;;;10.50;2.20;;;5.60;99.90;;;;;;2081667;28;20057;-69
2022/01/30 05:25:50;;;;;;;16.08;2.90;;;5.60;99.90;;;;;;2080505;28;20026;-69
2022/01/30 05:26:51;;;;;;;12.90;2.70;;;5.60;99.90;;;;;;2073385;28;20421;-69
2022/01/30 05:27:58;;;;;;;13.10;2.75;;;5.60;99.90;;;;;;2073534;28;20063;-70
2022/01/30 05:29:11;;;;;;;14.98;3.13;;;5.60;99.90;;;;;;2081006;28;20610;-68
2022/01/30 05:30:36;;;;;;;14.88;2.83;;;5.60;99.90;;;;;;2080748;28;20416;-69
2022/01/30 05:32:03;;;;;;;12.95;2.50;;;5.60;99.90;;;;;;2081075;28;20057;-69
2022/01/30 05:33:27;;;;;;;14.77;2.67;;;5.60;99.90;;;;;;2080727;28;20163;-69
2022/01/30 05:34:34;;;;;;;12.30;2.50;;;5.60;99.90;;;;;;2080940;28;20022;-69
2022/01/30 05:35:55;;;;;;;13.25;2.83;;;5.60;99.90;;;;;;2074974;28;20022;-69
2022/01/30 05:37:17;;;;;;;10.45;2.40;;;5.60;99.90;;;;;;2075011;28;20076;-69
2022/01/30 05:38:36;;;;;;;10.35;2.50;;;5.70;99.90;;;;;;2080886;28;20033;-69
2022/01/30 05:40:09;;;;;;;15.43;2.72;;;5.60;99.90;;;;;;2088503;28;20033;-69
2022/01/30 05:41:19;;;;;;;9.75;2.40;;;5.60;99.90;;;;;;2082244;28;20037;-69
2022/01/30 05:42:37;;;;;;;12.05;2.40;;;5.70;99.90;;;;;;2075748;28;20587;-69
2022/01/30 05:44:11;;;;;;;13.25;2.65;;;5.70;99.90;;;;;;2083604;28;20033;-69
2022/01/30 05:45:38;;;;;;;12.73;2.63;;;5.70;99.90;;;;;;2081073;28;20029;-69
2022/01/30 05:46:54;;;;;;;12.68;2.53;;;5.70;99.90;;;;;;2080780;28;20022;-69
2022/01/30 05:48:15;;;;;;;14.80;2.95;;;5.70;99.90;;;;;;2075192;28;20034;-69
2022/01/30 05:49:37;;;;;;;12.48;2.40;;;5.70;99.90;;;;;;2080978;28;20032;-69
2022/01/30 05:50:56;;;;;;;14.45;2.70;;;5.70;99.90;;;;;;2081033;28;20033;-69
2022/01/30 05:52:16;;;;;;;17.40;3.00;;;5.70;99.90;;;;;;2080791;28;20053;-70
2022/01/30 05:53:48;;;;;;;13.50;2.50;;;5.60;99.90;;;;;;2080311;28;20075;-70
2022/01/30 05:54:52;;;;;;;15.38;2.65;;;5.60;99.90;;;;;;2085289;28;20087;-69
2022/01/30 05:55:53;;;;;;;14.10;2.60;;;5.60;99.90;;;;;;2079313;28;20032;-69
2022/01/30 05:56:54;;;;;;;14.10;2.97;;;5.60;99.90;;;;;;2081390;28;20030;-69
2022/01/30 05:57:54;;;;;;;10.60;2.70;;;5.60;99.90;;;;;;2065091;28;20100;-69
2022/01/30 05:59:02;;;;;;;16.05;2.85;;;5.60;99.90;;;;;;2066745;28;20030;-68
2022/01/30 06:00:08;;;;;;;12.23;2.53;;;5.60;99.90;;;;;;2080940;28;20025;-69
2022/01/30 06:01:27;;;;;;;16.48;2.97;;;5.60;99.90;;;;;;2080322;28;20044;-69
2022/01/30 06:02:32;;;;;;;15.50;3.08;;;5.70;99.90;;;;;;2072868;28;20826;-71
2022/01/30 06:03:33;;;;;;;12.60;2.80;;;5.70;99.90;;;;;;2072529;28;20030;-70
2022/01/30 06:04:34;;;;;;;13.10;2.75;;;5.70;99.70;;;;;;2072494;28;20021;-69
2022/01/30 06:05:34;;;;;;;16.60;2.97;;;5.70;99.60;;;;;;2080287;28;20025;-70
2022/01/30 06:06:35;;;;;;;16.08;2.88;;;5.70;99.50;;;;;;2072396;28;20493;-69
2022/01/30 06:07:46;;;;;;;17.95;3.28;;;5.70;99.40;;;;;;2064323;28;20022;-68
2022/01/30 06:08:59;;;;;;;13.38;2.88;;;5.80;98.30;;;;;;2082032;28;20017;-70
2022/01/30 06:09:59;;;;;;;15.73;3.15;;;5.80;98.80;;;;;;2080549;28;20077;-69
2022/01/30 06:11:00;;;;;;;14.20;3.05;;;5.80;98.90;;;;;;2072547;28;20030;-68
2022/01/30 06:12:01;;;;;;;19.55;3.25;;;5.80;97.80;;;;;;2072108;28;20490;-68
2022/01/30 06:13:04;;;;;;;20.35;3.22;;;5.80;98.20;;;;;;2072914;28;20084;-68
2022/01/30 06:14:04;;;;;;;15.65;3.20;;;5.80;98.20;;;;;;2072600;28;20080;-67
2022/01/30 06:15:06;;;;;;;18.00;3.20;;;5.80;97.80;;;;;;2080478;28;20158;-69
2022/01/30 06:16:07;;;;;;;16.50;3.60;;;5.80;98.30;;;;;;2064000;28;20065;-69
2022/01/30 06:17:08;;;;;;;17.15;3.00;;;5.80;97.70;;;;;;2064362;28;20144;-68
2022/01/30 06:18:27;;;;;;;16.15;3.22;;;5.80;97.60;;;;;;2080882;28;20022;-69
2022/01/30 06:19:46;;;;;;;14.63;2.95;;;5.80;98.20;;;;;;2081366;28;20034;-70
2022/01/30 06:21:21;;;;;;;16.27;3.17;;;5.80;98.20;;;;;;2081135;28;20028;-70
2022/01/30 06:22:22;;;;;;;12.23;2.72;;;5.80;98.00;;;;;;2081811;28;20060;-69
2022/01/30 06:23:43;;;;;;;13.52;2.67;;;5.80;97.50;;;;;;2081855;28;20029;-69
2022/01/30 06:25:03;;;;;;;16.67;3.33;;;5.80;97.50;;;;;;2081488;28;20034;-70
2022/01/30 06:26:24;;;;;;;15.48;2.97;;;5.80;98.30;;;;;;2081066;28;20037;-69
2022/01/30 06:27:30;;;;;;;16.02;3.05;;;5.80;98.10;;;;;;2081168;28;20037;-69
2022/01/30 06:28:54;;;;;;;17.02;3.22;;;5.80;97.90;;;;;;2081024;28;20409;-68
2022/01/30 06:30:21;;;;;;;17.23;3.05;;;5.80;98.70;;;;;;2080121;28;20033;-69
2022/01/30 06:31:54;;;;;;;17.13;3.42;;;5.80;98.70;;;;;;2087702;28;20037;-70
2022/01/30 06:33:14;;;;;;;13.32;3.05;;;5.80;98.60;;;;;;2081363;28;20473;-70
2022/01/30 06:34:33;;;;;;;13.98;3.00;;;5.80;98.10;;;;;;2081247;28;20033;-69
2022/01/30 06:35:56;;;;;;;15.13;3.65;;;5.80;97.70;;;;;;2080451;28;20092;-70
2022/01/30 06:37:10;;;;;;;17.95;3.50;;;5.70;98.00;;;;;;2080141;28;20108;-69
2022/01/30 06:38:20;;;;;;;18.58;3.58;;;5.80;97.60;;;;;;2080318;28;20030;-69